createdAt,value
2023-02-11T00:00:52.552Z,246
2023-02-11T00:03:22.392Z,255
2023-02-11T00:05:52.514Z,244
2023-02-11T00:08:22.299Z,255
2023-02-11T00:10:52.374Z,233
2023-02-11T00:13:22.241Z,229
2023-02-11T00:15:52.225Z,222
2023-02-11T00:18:21.953Z,219
2023-02-11T00:20:52.021Z,226
2023-02-11T00:23:22.118Z,241
2023-02-11T00:25:52.432Z,236
2023-02-11T00:28:22.271Z,232
2023-02-11T00:30:52.430Z,219
2023-02-11T00:33:22.168Z,239
2023-02-11T00:35:52.394Z,235
2023-02-11T00:38:22.222Z,244
2023-02-11T00:40:52.309Z,233
2023-02-11T00:43:25.030Z,222
2023-02-11T00:45:58.098Z,218
2023-02-11T00:48:27.270Z,225
2023-02-11T00:50:56.836Z,227
2023-02-11T00:53:26.911Z,235
2023-02-11T00:56:04.548Z,267
2023-02-11T00:58:33.926Z,255
2023-02-11T01:01:10.078Z,264
2023-02-11T01:03:39.776Z,225
2023-02-11T01:06:12.616Z,232
2023-02-11T01:08:43.108Z,231
2023-02-11T01:11:14.964Z,224
2023-02-11T01:16:21.373Z,211
2023-02-11T01:18:58.875Z,218
2023-02-11T01:21:28.634Z,206
2023-02-11T01:24:04.964Z,206
2023-02-11T01:26:34.558Z,205
2023-02-11T01:29:04.392Z,208
2023-02-11T01:31:34.513Z,224
2023-02-11T01:34:04.527Z,199
2023-02-11T01:36:41.369Z,214
2023-02-11T01:39:11.240Z,221
2023-02-11T01:41:44.785Z,218
2023-02-11T01:44:20.771Z,205
2023-02-11T01:46:51.043Z,231
2023-02-11T01:49:20.973Z,215
2023-02-11T01:51:51.075Z,213
2023-02-11T01:54:20.983Z,201
2023-02-11T01:56:51.075Z,211
2023-02-11T01:59:20.979Z,216
2023-02-11T02:01:50.943Z,217
2023-02-11T02:04:20.907Z,212
2023-02-11T02:06:51.078Z,224
2023-02-11T02:11:56.524Z,226
2023-02-11T02:14:26.461Z,220
2023-02-11T02:16:56.707Z,230
2023-02-11T02:19:26.641Z,233
2023-02-11T02:21:56.679Z,253
2023-02-11T02:24:26.708Z,241
2023-02-11T02:26:56.379Z,228
2023-02-11T02:29:26.518Z,221
2023-02-11T02:31:56.624Z,215
2023-02-11T02:34:26.456Z,215
2023-02-11T02:36:56.475Z,196
2023-02-11T02:39:26.648Z,216
2023-02-11T02:41:56.601Z,197
2023-02-11T02:44:26.489Z,208
2023-02-11T02:46:56.695Z,215
2023-02-11T02:49:26.506Z,209
2023-02-11T02:51:56.621Z,192
2023-02-11T02:54:26.722Z,204
2023-02-11T02:56:56.602Z,208
2023-02-11T02:59:26.672Z,221
2023-02-11T03:01:56.916Z,225
2023-02-11T03:04:26.896Z,214
2023-02-11T03:06:56.779Z,205
2023-02-11T03:09:26.564Z,206
2023-02-11T03:11:56.581Z,224
2023-02-11T03:14:26.445Z,232
2023-02-11T03:16:56.409Z,222
2023-02-11T03:19:26.227Z,233
2023-02-11T03:21:56.166Z,237
2023-02-11T03:24:26.205Z,236
2023-02-11T03:26:56.558Z,242
2023-02-11T03:29:30.419Z,223
2023-02-11T03:32:00.658Z,228
2023-02-11T03:34:30.201Z,218
2023-02-11T03:37:00.198Z,210
2023-02-11T03:39:30.152Z,208
2023-02-11T03:42:00.132Z,196
2023-02-11T03:44:30.080Z,214
2023-02-11T03:46:59.806Z,220
2023-02-11T03:49:29.907Z,204
2023-02-11T03:51:59.865Z,226
2023-02-11T03:54:29.704Z,218
2023-02-11T03:56:59.777Z,215
2023-02-11T03:59:29.596Z,215
2023-02-11T04:01:59.321Z,225
2023-02-11T04:04:29.248Z,211
2023-02-11T04:06:59.203Z,216
2023-02-11T04:09:29.244Z,214
2023-02-11T04:11:59.764Z,221
2023-02-11T04:14:29.754Z,229
2023-02-11T04:16:59.610Z,245
2023-02-11T04:19:29.378Z,221
2023-02-11T04:21:59.350Z,213
2023-02-11T04:24:29.348Z,233
2023-02-11T04:26:59.370Z,221
2023-02-11T04:29:29.346Z,221
2023-02-11T04:31:59.780Z,234
2023-02-11T04:34:29.662Z,207
2023-02-11T04:36:59.759Z,208
2023-02-11T04:39:29.659Z,230
2023-02-11T04:41:59.623Z,227
2023-02-11T04:44:29.569Z,213
2023-02-11T04:46:59.733Z,224
2023-02-11T04:49:29.349Z,210
2023-02-11T04:51:59.394Z,209
2023-02-11T04:54:29.253Z,227
2023-02-11T04:56:59.325Z,232
2023-02-11T04:59:28.983Z,237
2023-02-11T05:01:59.006Z,225
2023-02-11T05:04:29.214Z,227
2023-02-11T05:06:59.627Z,227
2023-02-11T05:09:29.416Z,223
2023-02-11T05:11:59.415Z,240
2023-02-11T05:14:29.459Z,233
2023-02-11T05:16:59.629Z,210
2023-02-11T05:19:29.503Z,249
2023-02-11T05:22:02.822Z,233
2023-02-11T05:24:29.504Z,233
2023-02-11T05:26:59.633Z,206
2023-02-11T05:29:29.790Z,226
2023-02-11T05:31:59.850Z,228
2023-02-11T05:34:30.025Z,234
2023-02-11T05:36:59.924Z,217
2023-02-11T05:39:30.034Z,227
2023-02-11T05:41:59.944Z,237
2023-02-11T05:44:30.018Z,236
2023-02-11T05:47:00.004Z,250
2023-02-11T05:49:30.125Z,266
2023-02-11T05:52:00.281Z,236
2023-02-11T05:54:30.214Z,248
2023-02-11T05:57:00.446Z,230
2023-02-11T05:59:30.459Z,224
2023-02-11T06:02:00.339Z,229
2023-02-11T06:04:30.459Z,235
2023-02-11T06:07:00.256Z,240
2023-02-11T06:09:30.368Z,242
2023-02-11T06:12:00.483Z,232
2023-02-11T06:14:30.573Z,241
2023-02-11T06:17:00.629Z,224
2023-02-11T06:19:30.782Z,234
2023-02-11T06:22:00.789Z,231
2023-02-11T06:24:51.273Z,241
2023-02-11T06:27:00.988Z,254
2023-02-11T06:29:30.841Z,224
2023-02-11T06:32:01.021Z,242
2023-02-11T06:34:30.818Z,249
2023-02-11T06:37:00.923Z,256
2023-02-11T06:39:30.935Z,254
2023-02-11T06:42:00.806Z,247
2023-02-11T06:44:30.705Z,276
2023-02-11T06:47:00.438Z,265
2023-02-11T06:49:30.010Z,261
2023-02-11T06:52:00.125Z,249
2023-02-11T06:57:00.661Z,276
2023-02-11T06:59:30.494Z,246
2023-02-11T07:02:00.557Z,249
2023-02-11T07:04:30.678Z,241
2023-02-11T07:07:06.806Z,254
2023-02-11T07:09:36.602Z,251
2023-02-11T07:12:06.611Z,253
2023-02-11T07:14:36.076Z,250
2023-02-11T07:17:06.008Z,251
2023-02-11T07:19:35.820Z,239
2023-02-11T07:22:11.843Z,264
2023-02-11T07:24:41.822Z,260
2023-02-11T07:27:11.777Z,249
2023-02-11T07:29:41.432Z,239
2023-02-11T07:32:12.680Z,254
2023-02-11T07:34:42.373Z,257
2023-02-11T07:37:12.170Z,272
2023-02-11T07:39:42.653Z,283
2023-02-11T07:42:12.609Z,277
2023-02-11T07:44:42.727Z,282
2023-02-11T07:47:14.721Z,267
2023-02-11T07:49:44.089Z,261
2023-02-11T07:52:13.948Z,279
2023-02-11T07:54:44.040Z,246
2023-02-11T07:57:14.563Z,259
2023-02-11T07:59:44.400Z,246
2023-02-11T08:02:15.038Z,263
2023-02-11T08:04:46.025Z,285
2023-02-11T08:07:15.742Z,288
2023-02-11T08:09:45.711Z,276
2023-02-11T08:12:15.591Z,288
2023-02-11T08:14:45.679Z,259
2023-02-11T08:17:16.490Z,335
2023-02-11T08:19:46.173Z,341
2023-02-11T08:22:16.263Z,277
2023-02-11T08:24:46.290Z,291
2023-02-11T08:27:16.235Z,273
2023-02-11T08:29:46.228Z,255
2023-02-11T08:32:16.950Z,247
2023-02-11T08:34:46.820Z,203
2023-02-11T08:37:22.693Z,152
2023-02-11T08:39:52.938Z,134
2023-02-11T08:42:23.123Z,189
2023-02-11T08:44:53.139Z,173
2023-02-11T08:47:23.915Z,159
2023-02-11T08:49:54.678Z,137
2023-02-11T08:52:24.016Z,117
2023-02-11T08:54:54.026Z,111
2023-02-11T08:57:24.654Z,114
2023-02-11T08:59:54.601Z,110
2023-02-11T09:02:25.573Z,105
2023-02-11T09:04:55.273Z,104
2023-02-11T09:07:25.447Z,115
2023-02-11T09:09:55.271Z,112
2023-02-11T09:12:25.090Z,111
2023-02-11T09:14:54.662Z,143
2023-02-11T09:17:24.740Z,118
2023-02-11T09:19:54.491Z,105
2023-02-11T09:22:24.656Z,110
2023-02-11T09:24:54.602Z,104
2023-02-11T09:27:24.757Z,104
2023-02-11T09:29:54.493Z,110
2023-02-11T09:32:25.047Z,103
2023-02-11T09:34:55.123Z,106
2023-02-11T09:37:25.997Z,109
2023-02-11T09:39:56.090Z,107
2023-02-11T09:42:26.826Z,113
2023-02-11T09:44:56.475Z,112
2023-02-11T09:47:26.768Z,108
2023-02-11T09:49:56.713Z,114
2023-02-11T09:52:26.160Z,112
2023-02-11T09:54:56.184Z,116
2023-02-11T09:57:28.795Z,104
2023-02-11T09:59:56.164Z,114
2023-02-11T10:02:26.204Z,116
2023-02-11T10:04:56.109Z,108
2023-02-11T10:07:25.920Z,106
2023-02-11T10:09:59.892Z,104
2023-02-11T10:12:29.470Z,139
2023-02-11T10:14:59.554Z,112
2023-02-11T10:17:29.666Z,105
2023-02-11T10:20:00.437Z,117
2023-02-11T10:22:30.297Z,109
2023-02-11T10:25:01.365Z,118
2023-02-11T10:27:30.956Z,111
2023-02-11T10:30:01.917Z,100
2023-02-11T10:32:33.662Z,131
2023-02-11T10:35:04.335Z,130
2023-02-11T10:37:33.856Z,107
2023-02-11T10:40:04.660Z,116
2023-02-11T10:42:34.480Z,105
2023-02-11T10:45:04.172Z,114
2023-02-11T10:47:34.193Z,116
2023-02-11T10:50:06.845Z,107
2023-02-11T10:52:37.113Z,108
2023-02-11T10:55:07.290Z,91
2023-02-11T10:57:37.258Z,101
2023-02-11T11:00:07.286Z,94
2023-02-11T11:02:37.187Z,96
2023-02-11T11:05:07.453Z,104
2023-02-11T11:07:37.663Z,92
2023-02-11T11:10:06.988Z,96
2023-02-11T11:12:37.598Z,104
2023-02-11T11:15:06.991Z,91
2023-02-11T11:17:37.181Z,83
2023-02-11T11:20:07.254Z,100
2023-02-11T11:22:44.626Z,84
2023-02-11T11:25:13.478Z,88
2023-02-11T11:27:43.413Z,85
2023-02-11T11:30:13.177Z,104
2023-02-11T11:32:42.813Z,90
2023-02-11T11:35:13.524Z,92
2023-02-11T11:37:44.699Z,95
2023-02-11T11:40:14.540Z,86
2023-02-11T11:42:44.412Z,93
2023-02-11T11:45:14.288Z,90
2023-02-11T11:47:44.837Z,88
2023-02-11T11:50:14.982Z,88
2023-02-11T11:52:44.855Z,92
2023-02-11T11:55:14.911Z,96
2023-02-11T11:57:45.051Z,96
2023-02-11T12:00:15.174Z,96
2023-02-11T12:02:45.265Z,98
2023-02-11T12:05:14.980Z,95
2023-02-11T12:07:44.953Z,92
2023-02-11T12:10:17.222Z,88
2023-02-11T12:12:47.208Z,88
2023-02-11T12:15:17.119Z,78
2023-02-11T12:17:48.617Z,96
2023-02-11T12:20:19.314Z,91
2023-02-11T12:25:29.184Z,94
2023-02-11T12:27:59.213Z,87
2023-02-11T12:30:30.033Z,86
2023-02-11T12:33:00.169Z,92
2023-02-11T12:35:30.559Z,90
2023-02-11T12:38:03.884Z,85
2023-02-11T12:40:34.500Z,92
2023-02-11T12:43:04.435Z,92
2023-02-11T12:45:34.973Z,91
2023-02-11T12:48:04.888Z,94
2023-02-11T12:50:35.646Z,106
2023-02-11T12:53:05.677Z,90
2023-02-11T12:55:35.920Z,91
2023-02-11T12:58:05.936Z,91
2023-02-11T13:00:36.124Z,92
2023-02-11T13:03:06.111Z,95
2023-02-11T13:05:35.844Z,97
2023-02-11T13:08:06.440Z,92
2023-02-11T13:10:36.790Z,92
2023-02-11T13:13:05.943Z,98
2023-02-11T13:15:35.886Z,94
2023-02-11T13:18:06.373Z,104
2023-02-11T13:20:39.154Z,92
2023-02-11T13:25:55.548Z,100
2023-02-11T13:28:26.283Z,105
2023-02-11T13:30:57.185Z,98
2023-02-11T13:33:26.835Z,100
2023-02-11T13:35:56.963Z,103
2023-02-11T13:38:27.090Z,92
2023-02-11T13:40:57.261Z,92
2023-02-11T13:43:28.153Z,92
2023-02-11T13:45:58.182Z,100
2023-02-11T13:48:27.612Z,97
2023-02-11T13:50:57.590Z,91
2023-02-11T13:53:29.465Z,91
2023-02-11T13:55:59.453Z,88
2023-02-11T13:58:30.140Z,95
2023-02-11T14:01:00.015Z,98
2023-02-11T14:03:30.635Z,95
2023-02-11T14:05:59.937Z,96
2023-02-11T14:08:30.594Z,87
2023-02-11T14:11:01.128Z,88
2023-02-11T14:13:30.779Z,90
2023-02-11T14:16:05.403Z,86
2023-02-11T14:18:36.067Z,100
2023-02-11T14:21:06.005Z,89
2023-02-11T14:23:49.712Z,81
2023-02-11T14:26:23.423Z,84
2023-02-11T14:28:53.394Z,95
2023-02-11T14:31:41.894Z,93
2023-02-11T14:34:22.952Z,88
2023-02-11T14:39:39.833Z,89
2023-02-11T14:42:09.714Z,92
2023-02-11T14:44:39.708Z,96
2023-02-11T14:47:10.308Z,84
2023-02-11T14:49:44.704Z,88
2023-02-11T14:52:14.955Z,86
2023-02-11T14:54:46.412Z,95
2023-02-11T14:57:16.116Z,87
2023-02-11T14:59:46.128Z,92
2023-02-11T15:04:54.872Z,88
2023-02-11T15:07:24.568Z,90
2023-02-11T15:09:54.391Z,91
2023-02-11T15:12:25.291Z,93
2023-02-11T15:17:44.709Z,92
2023-02-11T15:23:13.431Z,89
2023-02-11T15:25:45.813Z,88
2023-02-11T15:28:15.224Z,97
2023-02-11T15:30:44.958Z,92
2023-02-11T15:33:17.565Z,92
2023-02-11T15:35:52.748Z,100
2023-02-11T15:38:27.190Z,95
2023-02-11T15:40:57.021Z,95
2023-02-11T15:43:25.908Z,92
2023-02-11T15:45:55.543Z,101
2023-02-11T15:48:26.319Z,100
2023-02-11T15:51:01.714Z,92
2023-02-11T15:53:32.143Z,96
2023-02-11T15:56:01.485Z,96
2023-02-11T15:58:38.988Z,93
2023-02-11T16:01:08.300Z,99
2023-02-11T16:06:14.875Z,100
2023-02-11T16:08:45.236Z,97
2023-02-11T16:11:14.827Z,100
2023-02-11T16:13:44.796Z,98
2023-02-11T16:16:14.385Z,100
2023-02-11T16:19:04.115Z,102
2023-02-11T16:21:22.615Z,100
2023-02-11T16:23:52.331Z,98
2023-02-11T16:26:21.900Z,104
2023-02-11T16:28:52.043Z,112
2023-02-11T16:31:23.466Z,113
2023-02-11T16:33:53.908Z,107
2023-02-11T16:36:25.412Z,103
2023-02-11T16:38:55.348Z,117
2023-02-11T16:43:59.827Z,117
2023-02-11T16:46:29.767Z,119
2023-02-11T16:49:00.359Z,121
2023-02-11T16:51:30.601Z,163
2023-02-11T16:54:00.324Z,201
2023-02-11T16:56:41.729Z,181
2023-02-11T17:01:56.825Z,190
2023-02-11T17:04:26.829Z,157
2023-02-11T17:06:58.454Z,168
2023-02-11T17:09:29.862Z,166
2023-02-11T17:11:56.635Z,159
2023-02-11T17:14:26.291Z,161
2023-02-11T17:17:02.516Z,160
2023-02-11T17:19:39.733Z,170
2023-02-11T17:22:09.342Z,176
2023-02-11T17:24:39.723Z,173
2023-02-11T17:27:09.797Z,194
2023-02-11T17:32:10.990Z,196
2023-02-11T17:34:41.199Z,189
2023-02-11T17:37:14.473Z,194
2023-02-11T17:39:45.381Z,206
2023-02-11T17:42:16.042Z,228
2023-02-11T17:44:45.971Z,239
2023-02-11T17:47:16.871Z,232
2023-02-11T17:49:53.386Z,214
2023-02-11T17:52:23.260Z,250
2023-02-11T17:54:53.376Z,233
2023-02-11T17:57:23.366Z,245
2023-02-11T17:59:53.348Z,261
2023-02-11T18:02:23.575Z,241
2023-02-11T18:04:53.682Z,259
2023-02-11T18:07:23.976Z,266
2023-02-11T18:09:53.784Z,265
2023-02-11T18:15:00.904Z,301
2023-02-11T18:17:31.812Z,298
2023-02-11T18:20:01.694Z,282
2023-02-11T18:22:32.531Z,299
2023-02-11T18:25:02.592Z,295
2023-02-11T18:27:32.366Z,280
2023-02-11T18:30:02.521Z,267
2023-02-11T18:32:32.494Z,253
2023-02-11T18:35:02.460Z,241
2023-02-11T18:37:33.343Z,256
2023-02-11T18:40:03.093Z,238
2023-02-11T18:42:33.132Z,251
2023-02-11T18:45:03.166Z,262
2023-02-11T18:47:33.956Z,257
2023-02-11T18:50:04.091Z,233
2023-02-11T18:52:34.849Z,230
2023-02-11T18:55:04.414Z,263
2023-02-11T18:57:34.384Z,243
2023-02-11T19:00:05.861Z,251
2023-02-11T19:02:36.813Z,272
2023-02-11T19:05:07.300Z,288
2023-02-11T19:07:37.851Z,283
2023-02-11T19:10:07.754Z,289
2023-02-11T19:12:38.569Z,323
2023-02-11T19:15:08.491Z,309
2023-02-11T19:17:38.298Z,277
2023-02-11T19:20:09.120Z,295
2023-02-11T19:22:39.104Z,310
2023-02-11T19:25:09.134Z,306
2023-02-11T19:27:39.271Z,311
2023-02-11T19:30:09.136Z,287
2023-02-11T19:32:41.411Z,301
2023-02-11T19:35:11.417Z,273
2023-02-11T19:37:43.859Z,246
2023-02-11T19:40:15.510Z,257
2023-02-11T19:42:45.508Z,255
2023-02-11T19:45:15.456Z,262
2023-02-11T19:47:45.705Z,245
2023-02-11T19:50:15.706Z,226
2023-02-11T19:52:45.245Z,262
2023-02-11T19:55:17.367Z,267
2023-02-11T19:57:48.161Z,298
2023-02-11T20:00:20.991Z,300
2023-02-11T20:02:50.936Z,293
2023-02-11T20:05:20.802Z,269
2023-02-11T20:07:51.235Z,253
2023-02-11T20:10:21.140Z,245
2023-02-11T20:12:51.820Z,258
2023-02-11T20:15:21.728Z,268
2023-02-11T20:17:51.675Z,275
2023-02-11T20:20:21.676Z,275
2023-02-11T20:22:50.763Z,316
2023-02-11T20:25:20.824Z,311
2023-02-11T20:27:50.747Z,291
2023-02-11T20:30:21.579Z,278
2023-02-11T20:32:51.427Z,258
2023-02-11T20:35:22.141Z,262
2023-02-11T20:37:52.095Z,255
2023-02-11T20:40:22.279Z,242
2023-02-11T20:42:52.335Z,262
2023-02-11T20:45:23.021Z,253
2023-02-11T20:47:53.080Z,258
2023-02-11T20:50:25.002Z,270
2023-02-11T20:52:55.529Z,245
2023-02-11T20:55:26.156Z,263
2023-02-11T20:57:55.988Z,244
2023-02-11T21:00:25.522Z,252
2023-02-11T21:02:56.235Z,241
2023-02-11T21:05:26.008Z,217
2023-02-11T21:07:55.267Z,224
2023-02-11T21:10:25.707Z,266
2023-02-11T21:12:55.751Z,260
2023-02-11T21:15:26.481Z,236
2023-02-11T21:17:59.776Z,252
2023-02-11T21:20:29.622Z,253
2023-02-11T21:22:59.698Z,240
2023-02-11T21:25:29.937Z,267
2023-02-11T21:28:02.182Z,248
2023-02-11T21:30:32.625Z,267
2023-02-11T21:33:02.589Z,277
2023-02-11T21:35:33.243Z,263
2023-02-11T21:38:03.523Z,279
2023-02-11T21:40:33.540Z,267
2023-02-11T21:43:03.401Z,269
2023-02-11T21:45:34.178Z,263
2023-02-11T21:48:04.204Z,287
2023-02-11T21:50:34.334Z,283
2023-02-11T21:53:06.889Z,269
2023-02-11T21:55:35.051Z,262
2023-02-11T21:58:04.749Z,266
2023-02-11T22:00:35.064Z,281
2023-02-11T22:03:08.048Z,270
2023-02-11T22:05:42.630Z,289
2023-02-11T22:08:12.615Z,275
2023-02-11T22:10:42.819Z,291
2023-02-11T22:13:12.742Z,290
2023-02-11T22:15:45.235Z,279
2023-02-11T22:18:15.310Z,304
2023-02-11T22:20:46.073Z,276
2023-02-11T22:23:16.111Z,263
2023-02-11T22:25:46.900Z,246
2023-02-11T22:28:17.207Z,251
2023-02-11T22:30:47.187Z,235
2023-02-11T22:33:17.304Z,238
2023-02-11T22:35:46.890Z,236
2023-02-11T22:38:16.950Z,240
2023-02-11T22:40:46.852Z,226
2023-02-11T22:43:17.000Z,270
2023-02-11T22:45:46.962Z,256
2023-02-11T22:48:23.150Z,270
2023-02-11T22:50:51.484Z,287
2023-02-11T22:53:21.261Z,278
2023-02-11T22:55:51.026Z,269
2023-02-11T22:58:20.839Z,263
2023-02-11T23:00:50.021Z,288
2023-02-11T23:03:19.818Z,262
2023-02-11T23:05:49.900Z,257
2023-02-11T23:08:19.964Z,251
2023-02-11T23:10:50.245Z,227
2023-02-11T23:13:20.700Z,213
2023-02-11T23:15:50.640Z,222
2023-02-11T23:18:20.651Z,223
2023-02-11T23:20:50.863Z,209
2023-02-11T23:25:57.111Z,201
2023-02-11T23:28:26.628Z,215
2023-02-11T23:31:04.029Z,211
2023-02-11T23:33:36.160Z,199
2023-02-11T23:36:05.403Z,196
2023-02-11T23:38:35.615Z,201
2023-02-11T23:41:05.745Z,199
2023-02-11T23:43:35.814Z,208
2023-02-11T23:46:05.899Z,191
2023-02-11T23:48:36.061Z,199
2023-02-11T23:51:05.985Z,215
2023-02-11T23:53:36.059Z,227
2023-02-11T23:56:06.268Z,207
2023-02-11T23:58:36.369Z,228
